KDED/DED METAR and TAF weather

Enter ICAO airport designator
Station Type Date Time Source
KDED METAR 2020/09/18 06:55 UTC NOAA

KDED 180655Z AUTO 21005KT 10SM BKN044 OVC055 25/24 A2984 RMK AO2 T02550242


Station Type Date Time Source
KDED Decoded METAR 2020/09/18 06:55 UTC NOAA

Station name not available
Sep 18, 2020 - 02:55 AM EDT / 2020.09.18 0655 UTC
Wind: from the SSW (210 degrees) at 6 MPH (5 KT):0
Visibility: 10 mile(s):0
Sky conditions: overcast
Temperature: 77.9 F (25.5 C)
Dew Point: 75.6 F (24.2 C)
Relative Humidity: 92%
Pressure (altimeter): 29.84 in. Hg (1010 hPa)
ob: KDED 180655Z AUTO 21005KT 10SM BKN044 OVC055 25/24 A2984 RMK AO2 T02550242
cycle: 7

Station Type Date Time Source
KDED TAF UTC NOAA

Error!

Example: see airport list